Time;durP1;ratioP1;P1;durP2;ratioP2;P2;SDS_P1;SDS_P2;PMS_P1;PMS_P2;Temp;Humidity;BMP_temperature;BMP_pressure;BME280_temperature;BME280_humidity;BME280_pressure;Samples;Min_cycle;Max_cycle;Signal;HPM_P1;HPM_P2
2023/01/30 00:01:24;;;;;;;41.20;20.17;;;5.00;99.90;;;;;;5037528;28;20258;-59
2023/01/30 00:03:51;;;;;;;35.87;18.93;;;5.00;99.90;;;;;;5036827;28;20715;-60
2023/01/30 00:06:18;;;;;;;39.43;22.17;;;5.10;99.90;;;;;;5037149;28;20196;-64
2023/01/30 00:08:46;;;;;;;36.67;21.00;;;5.10;99.90;;;;;;5035558;28;20239;-61
2023/01/30 00:11:15;;;;;;;41.47;21.07;;;5.10;99.90;;;;;;5036663;28;20244;-61
2023/01/30 00:13:43;;;;;;;34.47;19.87;;;5.10;99.90;;;;;;5037508;28;20570;-59
2023/01/30 00:16:10;;;;;;;35.67;22.40;;;5.20;99.90;;;;;;5034206;28;20199;-60
2023/01/30 00:18:39;;;;;;;36.40;20.73;;;5.20;99.90;;;;;;5032501;28;20231;-59
2023/01/30 00:21:08;;;;;;;34.57;19.37;;;5.20;99.90;;;;;;5028655;28;20210;-60
2023/01/30 00:23:36;;;;;;;32.03;18.77;;;5.20;99.90;;;;;;5020971;28;20211;-59
2023/01/30 00:26:04;;;;;;;29.47;17.87;;;5.20;99.90;;;;;;5029187;28;20203;-59
2023/01/30 00:28:31;;;;;;;30.83;18.10;;;5.20;99.90;;;;;;5035453;28;20354;-59
2023/01/30 00:30:57;;;;;;;34.57;20.77;;;5.20;99.90;;;;;;5034700;28;20279;-59
2023/01/30 00:33:25;;;;;;;33.37;19.57;;;5.30;99.90;;;;;;5028669;28;20228;-60
2023/01/30 00:35:54;;;;;;;31.63;18.93;;;5.30;99.90;;;;;;5025802;28;20692;-60
2023/01/30 00:38:22;;;;;;;32.50;18.70;;;5.30;99.90;;;;;;5020709;28;20208;-60
2023/01/30 00:40:49;;;;;;;31.07;18.17;;;5.30;99.90;;;;;;5030649;28;20664;-63
2023/01/30 00:48:57;;;;;;;28.50;15.57;;;5.40;99.90;;;;;;5036746;28;20218;-59
2023/01/30 00:51:23;;;;;;;34.07;18.60;;;5.40;99.90;;;;;;5037323;28;20536;-62
2023/01/30 00:53:50;;;;;;;31.07;19.97;;;5.50;99.90;;;;;;5032179;28;20319;-61
2023/01/30 00:56:17;;;;;;;31.30;18.73;;;5.50;99.90;;;;;;5033849;28;20205;-61
2023/01/30 00:58:44;;;;;;;32.37;18.70;;;5.50;99.90;;;;;;5034066;28;20196;-61
2023/01/30 01:01:10;;;;;;;28.50;18.43;;;5.50;99.90;;;;;;5034829;28;20587;-60
2023/01/30 01:03:37;;;;;;;31.17;19.40;;;5.60;99.90;;;;;;5033426;28;20339;-60
2023/01/30 01:06:04;;;;;;;31.77;19.73;;;5.60;99.90;;;;;;5034995;28;20204;-60
2023/01/30 01:08:31;;;;;;;28.47;18.23;;;5.60;99.90;;;;;;5033902;28;20240;-60
2023/01/30 01:10:58;;;;;;;34.43;19.23;;;5.60;99.90;;;;;;5031051;28;20215;-59
2023/01/30 01:13:25;;;;;;;29.40;19.43;;;5.60;99.90;;;;;;5030845;28;20327;-60
2023/01/30 01:15:51;;;;;;;30.20;19.73;;;5.60;99.90;;;;;;5032757;28;20656;-59
2023/01/30 01:18:18;;;;;;;30.03;19.07;;;5.60;99.90;;;;;;5034804;28;20206;-60
2023/01/30 01:20:45;;;;;;;30.57;17.57;;;5.70;99.90;;;;;;5037483;28;20655;-61
2023/01/30 01:23:12;;;;;;;30.87;19.23;;;5.70;99.90;;;;;;5035352;28;20205;-60
2023/01/30 01:25:39;;;;;;;31.43;18.20;;;5.70;99.90;;;;;;5032745;28;20595;-60
2023/01/30 01:28:05;;;;;;;29.63;17.70;;;5.70;99.90;;;;;;5032433;28;20216;-59
2023/01/30 01:30:32;;;;;;;28.97;18.20;;;5.80;99.90;;;;;;5031675;28;20265;-60
2023/01/30 01:32:59;;;;;;;29.67;17.40;;;5.80;99.90;;;;;;5035344;28;20205;-59
2023/01/30 01:35:26;;;;;;;29.80;17.97;;;5.90;99.90;;;;;;5034723;28;21112;-60
2023/01/30 01:37:53;;;;;;;27.27;17.57;;;5.90;99.90;;;;;;5027181;28;20209;-61
2023/01/30 01:43:21;;;;;;;26.53;17.50;;;6.00;99.90;;;;;;5033898;28;20467;-61
2023/01/30 01:45:52;;;;;;;27.03;16.47;;;6.00;99.90;;;;;;5036858;28;20200;-60
2023/01/30 01:48:27;;;;;;;27.07;15.53;;;6.10;99.90;;;;;;5033526;28;20433;-60
2023/01/30 01:51:07;;;;;;;23.57;14.40;;;6.20;99.90;;;;;;5033147;28;20368;-61
2023/01/30 01:53:41;;;;;;;23.50;13.63;;;6.20;99.90;;;;;;5020795;28;20286;-60
2023/01/30 01:56:09;;;;;;;22.17;14.47;;;6.30;99.90;;;;;;5035854;28;20199;-61
2023/01/30 01:58:49;;;;;;;21.30;13.40;;;6.30;99.90;;;;;;5034818;28;20209;-61
2023/01/30 02:01:16;;;;;;;18.70;12.30;;;6.50;99.90;;;;;;5030650;28;20240;-62
2023/01/30 02:03:49;;;;;;;19.80;11.40;;;6.60;99.90;;;;;;5034477;28;20251;-61
2023/01/30 02:06:17;;;;;;;21.37;11.17;;;6.60;99.90;;;;;;5032686;28;20204;-61
2023/01/30 02:08:49;;;;;;;14.70;10.00;;;6.60;99.90;;;;;;5031637;28;20307;-60
2023/01/30 02:11:42;;;;;;;14.93;10.33;;;6.70;99.90;;;;;;5036833;28;20241;-60
2023/01/30 02:14:11;;;;;;;14.30;9.17;;;6.70;99.90;;;;;;5036404;28;20200;-60
2023/01/30 02:16:39;;;;;;;18.53;9.90;;;6.80;99.90;;;;;;5032063;28;20198;-60
2023/01/30 02:19:34;;;;;;;15.07;9.97;;;6.80;99.90;;;;;;5036142;28;20204;-59
2023/01/30 02:22:12;;;;;;;15.43;10.67;;;6.80;99.90;;;;;;5030185;28;20211;-60
2023/01/30 02:24:57;;;;;;;17.97;10.40;;;6.80;99.90;;;;;;5035774;28;20719;-59
2023/01/30 02:27:47;;;;;;;17.93;9.67;;;6.90;99.90;;;;;;5034930;28;20203;-60
2023/01/30 02:30:45;;;;;;;16.90;10.80;;;6.90;99.90;;;;;;5030870;28;20205;-60
2023/01/30 02:33:26;;;;;;;14.43;9.67;;;6.90;99.90;;;;;;5035202;28;20336;-62
2023/01/30 02:36:08;;;;;;;13.77;8.97;;;6.90;99.90;;;;;;5028585;28;20587;-60
2023/01/30 02:38:46;;;;;;;12.53;8.63;;;6.90;99.90;;;;;;5021789;28;20222;-60
2023/01/30 02:41:35;;;;;;;16.53;7.77;;;6.90;99.90;;;;;;5025939;28;20208;-60
2023/01/30 02:44:30;;;;;;;15.60;8.70;;;7.00;99.90;;;;;;5036302;28;20301;-61
2023/01/30 02:47:10;;;;;;;12.07;7.87;;;7.00;99.90;;;;;;5000611;28;20684;-61
2023/01/30 02:49:46;;;;;;;14.00;8.87;;;7.00;99.90;;;;;;5023980;28;20231;-61
2023/01/30 02:52:14;;;;;;;10.03;8.23;;;7.00;99.90;;;;;;5026713;28;20558;-62
2023/01/30 02:54:43;;;;;;;12.63;8.03;;;7.00;99.90;;;;;;5025808;28;20929;-60
2023/01/30 02:57:22;;;;;;;12.73;7.43;;;7.00;99.90;;;;;;5025306;28;20192;-61
2023/01/30 02:59:55;;;;;;;10.37;7.70;;;6.90;99.90;;;;;;5024026;28;20204;-61
2023/01/30 03:02:49;;;;;;;11.87;7.10;;;6.90;99.90;;;;;;5013740;28;20256;-61
2023/01/30 03:05:50;;;;;;;14.03;7.17;;;6.80;99.90;;;;;;5025198;28;20214;-61
2023/01/30 03:08:35;;;;;;;10.63;7.13;;;6.80;99.90;;;;;;5026958;28;20223;-60
2023/01/30 03:11:05;;;;;;;11.83;7.20;;;6.80;99.90;;;;;;5022836;28;20736;-61
2023/01/30 03:14:12;;;;;;;11.97;6.77;;;6.80;99.90;;;;;;5025388;28;20217;-61
2023/01/30 03:16:40;;;;;;;10.47;5.70;;;6.70;99.90;;;;;;5024318;28;20196;-60
2023/01/30 03:19:11;;;;;;;14.63;7.20;;;6.70;99.90;;;;;;5021545;28;20235;-61
2023/01/30 03:21:43;;;;;;;16.10;6.83;;;6.80;99.90;;;;;;5023508;28;20722;-60
2023/01/30 03:24:11;;;;;;;11.23;6.47;;;6.80;99.90;;;;;;5024805;28;20652;-61
2023/01/30 03:27:03;;;;;;;12.77;6.27;;;6.80;99.90;;;;;;5024311;28;20215;-60
2023/01/30 03:29:30;;;;;;;10.10;6.33;;;6.80;99.90;;;;;;5014646;28;20586;-60
2023/01/30 03:31:57;;;;;;;9.87;6.10;;;6.80;99.90;;;;;;5029012;28;21638;-59
2023/01/30 03:34:23;;;;;;;10.40;5.87;;;6.80;99.90;;;;;;5023312;28;20932;-60
2023/01/30 03:36:50;;;;;;;10.47;6.27;;;6.80;99.90;;;;;;5021634;28;20240;-62
2023/01/30 03:39:17;;;;;;;12.67;6.47;;;6.80;99.90;;;;;;5022152;28;20204;-60
2023/01/30 03:41:45;;;;;;;11.23;7.17;;;6.80;99.90;;;;;;5024978;28;20322;-61
2023/01/30 03:44:11;;;;;;;9.93;6.07;;;6.80;99.90;;;;;;5025596;28;20243;-60
2023/01/30 03:46:38;;;;;;;13.93;6.70;;;6.90;99.90;;;;;;5026197;28;20224;-60
2023/01/30 03:49:05;;;;;;;9.10;6.47;;;6.80;99.90;;;;;;5029073;28;20209;-60
2023/01/30 03:51:32;;;;;;;11.33;6.20;;;6.80;99.90;;;;;;5034454;28;20592;-62
2023/01/30 03:53:58;;;;;;;10.03;6.03;;;6.80;99.90;;;;;;5031014;28;20622;-63
2023/01/30 03:56:25;;;;;;;9.43;6.17;;;6.90;99.90;;;;;;5035177;28;20366;-59
2023/01/30 03:58:52;;;;;;;10.40;6.43;;;6.90;99.90;;;;;;5029286;28;20236;-59
2023/01/30 04:01:19;;;;;;;8.10;5.23;;;6.90;99.90;;;;;;5036169;28;20260;-59
2023/01/30 04:03:46;;;;;;;10.27;6.20;;;6.90;99.90;;;;;;5026158;28;20201;-60
2023/01/30 04:06:12;;;;;;;11.23;5.53;;;6.90;99.90;;;;;;5033205;28;20205;-60
2023/01/30 04:08:39;;;;;;;14.40;5.97;;;6.90;99.90;;;;;;5028750;28;20316;-60
2023/01/30 04:11:06;;;;;;;12.00;6.73;;;6.90;99.90;;;;;;5031474;28;20905;-59
2023/01/30 04:13:32;;;;;;;15.63;6.00;;;7.00;99.90;;;;;;5032322;28;20207;-60
2023/01/30 04:16:23;;;;;;;13.77;6.17;;;6.90;99.90;;;;;;5020131;28;20209;-60
2023/01/30 04:18:49;;;;;;;11.97;5.90;;;7.00;99.90;;;;;;5029390;28;20221;-60
2023/01/30 04:21:16;;;;;;;14.80;5.17;;;7.00;99.90;;;;;;5035619;28;20607;-60
2023/01/30 04:23:43;;;;;;;11.60;5.70;;;7.00;99.90;;;;;;5032708;28;20213;-60
2023/01/30 04:26:11;;;;;;;9.83;5.70;;;7.00;99.90;;;;;;5036573;28;20299;-60
2023/01/30 04:28:38;;;;;;;10.90;5.93;;;7.10;99.90;;;;;;5036034;28;20582;-61
2023/01/30 04:31:05;;;;;;;11.23;5.53;;;7.00;99.90;;;;;;5035215;28;20203;-60
2023/01/30 04:33:35;;;;;;;12.73;5.73;;;7.10;99.90;;;;;;5033725;28;20274;-63
2023/01/30 04:36:03;;;;;;;10.50;5.63;;;7.10;99.90;;;;;;5038837;28;20677;-60
2023/01/30 04:38:31;;;;;;;12.90;5.73;;;7.10;99.90;;;;;;5036863;28;20695;-60
2023/01/30 04:40:59;;;;;;;9.10;5.73;;;7.20;99.90;;;;;;5039300;28;20297;-60
2023/01/30 04:43:27;;;;;;;10.27;4.93;;;7.20;99.90;;;;;;5036113;28;20201;-61
2023/01/30 04:45:55;;;;;;;12.93;5.03;;;7.20;99.90;;;;;;5038993;28;20212;-60
2023/01/30 04:48:23;;;;;;;13.20;5.10;;;7.20;99.90;;;;;;5036646;28;20209;-60
2023/01/30 04:50:52;;;;;;;7.87;4.97;;;7.20;99.90;;;;;;5035072;28;20205;-60
2023/01/30 04:53:20;;;;;;;10.30;5.10;;;7.20;99.90;;;;;;5035389;28;20644;-60
2023/01/30 04:55:47;;;;;;;11.53;4.53;;;7.20;99.90;;;;;;5037730;28;20190;-60
2023/01/30 04:58:15;;;;;;;9.17;5.00;;;7.20;99.90;;;;;;5033614;28;20229;-66
2023/01/30 05:00:42;;;;;;;11.10;5.10;;;7.30;99.90;;;;;;5037724;28;20204;-63
2023/01/30 05:03:09;;;;;;;10.97;5.20;;;7.30;99.90;;;;;;5032711;28;20198;-63
2023/01/30 05:05:36;;;;;;;9.00;4.90;;;7.30;99.90;;;;;;5038398;28;20198;-63
2023/01/30 05:08:03;;;;;;;10.80;4.57;;;7.30;99.90;;;;;;5035019;28;20221;-63
2023/01/30 05:10:29;;;;;;;12.87;4.93;;;7.30;99.90;;;;;;5038393;28;20208;-63
2023/01/30 05:13:01;;;;;;;12.03;4.80;;;7.30;99.90;;;;;;5037753;28;20605;-62
2023/01/30 05:15:28;;;;;;;10.93;4.57;;;7.40;99.90;;;;;;5036194;28;20206;-64
2023/01/30 05:17:54;;;;;;;10.90;4.03;;;7.30;99.90;;;;;;5030660;28;20239;-63
2023/01/30 05:20:22;;;;;;;7.47;3.63;;;7.30;99.90;;;;;;5036999;28;20212;-63
2023/01/30 05:22:49;;;;;;;11.87;4.27;;;7.30;99.90;;;;;;5038795;28;20234;-63
2023/01/30 05:25:16;;;;;;;13.00;3.77;;;7.30;99.90;;;;;;5037517;28;20645;-63
2023/01/30 05:27:43;;;;;;;9.50;3.70;;;7.30;99.90;;;;;;5032501;28;20205;-63
2023/01/30 05:30:10;;;;;;;8.90;3.53;;;7.30;99.90;;;;;;5037619;28;20213;-63
2023/01/30 05:32:37;;;;;;;7.93;3.40;;;7.40;99.90;;;;;;5035348;28;20655;-63
2023/01/30 05:35:04;;;;;;;11.87;3.67;;;7.30;99.90;;;;;;5038078;28;20712;-63
2023/01/30 05:37:31;;;;;;;8.23;3.73;;;7.30;99.90;;;;;;5033194;28;20231;-63
2023/01/30 05:39:58;;;;;;;10.03;3.60;;;7.40;99.90;;;;;;5031149;28;20654;-63
2023/01/30 05:42:24;;;;;;;15.30;3.33;;;7.40;99.90;;;;;;5036759;28;20241;-63
2023/01/30 05:44:51;;;;;;;10.70;3.00;;;7.40;99.90;;;;;;5037917;28;20221;-63
2023/01/30 05:47:18;;;;;;;10.47;3.10;;;7.40;99.90;;;;;;5037203;28;20196;-63
2023/01/30 05:49:45;;;;;;;5.80;2.87;;;7.40;99.90;;;;;;5031916;28;20224;-65
2023/01/30 05:52:11;;;;;;;7.30;3.10;;;7.50;99.90;;;;;;5037033;28;20278;-63
2023/01/30 05:54:38;;;;;;;8.07;3.20;;;7.50;99.90;;;;;;5038430;28;20372;-63
2023/01/30 05:57:05;;;;;;;9.67;3.03;;;7.50;99.90;;;;;;5038827;28;20215;-63
2023/01/30 05:59:32;;;;;;;11.23;3.47;;;7.50;99.90;;;;;;5034982;28;20216;-64
2023/01/30 06:01:58;;;;;;;12.40;2.90;;;7.60;99.90;;;;;;5035002;28;20244;-63
2023/01/30 06:04:25;;;;;;;10.57;2.77;;;7.50;99.90;;;;;;5037152;28;20315;-63
2023/01/30 06:06:52;;;;;;;10.30;3.10;;;7.60;99.90;;;;;;5036631;28;20213;-63
2023/01/30 06:09:19;;;;;;;14.27;3.00;;;7.50;99.90;;;;;;5033369;28;20316;-63
2023/01/30 06:11:46;;;;;;;14.27;3.03;;;7.50;99.90;;;;;;5031570;28;20671;-63
2023/01/30 06:14:12;;;;;;;10.60;3.13;;;7.50;99.90;;;;;;5036935;28;20191;-63
2023/01/30 06:16:39;;;;;;;7.93;3.47;;;7.50;99.90;;;;;;5037008;28;20630;-63
2023/01/30 06:19:07;;;;;;;12.43;3.90;;;7.40;99.90;;;;;;5035553;28;20240;-65
2023/01/30 06:21:34;;;;;;;11.60;3.20;;;7.40;99.90;;;;;;5035967;28;20204;-63
2023/01/30 06:24:01;;;;;;;7.60;2.87;;;7.40;99.90;;;;;;5035198;28;20741;-63
2023/01/30 06:26:28;;;;;;;9.43;2.67;;;7.40;99.90;;;;;;5033764;28;20651;-63
2023/01/30 06:28:55;;;;;;;15.83;3.20;;;7.40;99.90;;;;;;5028955;28;20862;-64
2023/01/30 06:31:21;;;;;;;9.50;2.30;;;7.30;99.90;;;;;;5033252;28;20250;-64
2023/01/30 06:33:48;;;;;;;10.90;2.43;;;7.40;99.90;;;;;;5034195;28;20206;-63
2023/01/30 06:36:15;;;;;;;8.13;2.33;;;7.30;99.90;;;;;;5033279;28;20315;-63
2023/01/30 06:38:42;;;;;;;4.37;1.60;;;7.30;99.90;;;;;;5035808;28;20201;-63
2023/01/30 06:41:08;;;;;;;10.10;2.50;;;7.20;99.90;;;;;;5030262;28;20269;-63
2023/01/30 06:43:35;;;;;;;8.13;1.87;;;7.20;99.90;;;;;;5016756;28;20576;-62
2023/01/30 06:46:02;;;;;;;9.83;2.77;;;7.20;99.90;;;;;;4660424;28;9999883;-63
2023/01/30 06:48:29;;;;;;;10.63;1.97;;;7.20;99.90;;;;;;5011704;28;20741;-64
2023/01/30 06:50:56;;;;;;;5.77;1.90;;;7.20;99.90;;;;;;5018237;28;20791;-64
2023/01/30 06:53:29;;;;;;;8.53;1.93;;;7.20;99.90;;;;;;5024299;28;20289;-64
2023/01/30 06:56:00;;;;;;;5.53;1.47;;;7.20;99.90;;;;;;5019242;28;20868;-64
2023/01/30 06:58:27;;;;;;;4.47;1.30;;;7.20;99.90;;;;;;5031712;28;20200;-65
2023/01/30 07:00:54;;;;;;;8.07;2.17;;;7.20;99.90;;;;;;5025323;28;20897;-63
2023/01/30 07:03:21;;;;;;;9.63;2.43;;;7.20;99.90;;;;;;5015349;28;20286;-61
2023/01/30 07:05:47;;;;;;;8.63;2.70;;;7.10;99.90;;;;;;5025735;28;20316;-61
2023/01/30 07:08:15;;;;;;;8.97;1.90;;;7.10;99.90;;;;;;5031176;28;20233;-63
2023/01/30 07:10:43;;;;;;;5.97;1.87;;;7.10;99.90;;;;;;5023096;28;20244;-60
2023/01/30 07:13:10;;;;;;;7.40;2.03;;;7.00;99.90;;;;;;5033573;28;20208;-61
2023/01/30 07:15:37;;;;;;;9.47;2.30;;;7.00;99.90;;;;;;5029171;28;20302;-61
2023/01/30 07:18:04;;;;;;;6.93;1.93;;;7.00;99.90;;;;;;5028234;28;20309;-60
2023/01/30 07:20:31;;;;;;;12.13;2.37;;;7.10;99.90;;;;;;5028218;28;20683;-61
2023/01/30 07:22:58;;;;;;;10.50;2.37;;;7.00;99.90;;;;;;5034210;28;20253;-60
2023/01/30 07:25:26;;;;;;;8.30;2.00;;;7.10;99.90;;;;;;5031565;28;20255;-61
2023/01/30 07:27:55;;;;;;;11.23;2.70;;;7.00;99.90;;;;;;5029051;28;20206;-61
2023/01/30 07:30:22;;;;;;;9.60;1.90;;;7.00;99.90;;;;;;5026013;28;20212;-63
2023/01/30 07:32:54;;;;;;;13.07;2.70;;;7.00;99.90;;;;;;5018847;28;20203;-61
2023/01/30 07:35:22;;;;;;;10.70;2.37;;;6.90;99.90;;;;;;5025449;28;20716;-61
2023/01/30 07:37:50;;;;;;;10.50;2.57;;;6.90;99.90;;;;;;5022394;28;20286;-60
2023/01/30 07:40:18;;;;;;;8.23;2.37;;;6.90;99.90;;;;;;5026928;28;20564;-60
2023/01/30 07:42:59;;;;;;;12.10;2.20;;;6.90;99.90;;;;;;5031971;28;20327;-61
2023/01/30 07:45:30;;;;;;;11.20;2.07;;;6.90;99.90;;;;;;5024104;28;22572;-61
2023/01/30 07:47:57;;;;;;;9.67;2.27;;;6.90;99.90;;;;;;5025801;28;20301;-60
2023/01/30 07:50:23;;;;;;;6.87;2.20;;;6.90;99.90;;;;;;5025565;28;20697;-61
2023/01/30 07:52:50;;;;;;;14.90;2.57;;;6.90;99.90;;;;;;5022748;28;20214;-62
2023/01/30 07:55:17;;;;;;;7.03;1.70;;;6.90;99.90;;;;;;5033766;28;20196;-60
2023/01/30 07:57:44;;;;;;;9.17;2.10;;;7.00;99.90;;;;;;5027209;28;20204;-60
2023/01/30 08:00:12;;;;;;;10.33;2.87;;;7.00;99.90;;;;;;5018859;28;20205;-60
2023/01/30 08:02:38;;;;;;;6.70;1.97;;;7.10;99.90;;;;;;5020891;28;20317;-61
2023/01/30 08:05:05;;;;;;;15.73;2.20;;;7.20;99.90;;;;;;5030312;28;20349;-60
2023/01/30 08:07:32;;;;;;;9.97;2.37;;;7.30;99.90;;;;;;5026850;28;20303;-62
2023/01/30 08:09:59;;;;;;;9.97;2.43;;;7.30;99.90;;;;;;5034204;28;20277;-60
2023/01/30 08:12:26;;;;;;;12.93;2.10;;;7.30;99.90;;;;;;5028775;28;20254;-61
2023/01/30 08:14:53;;;;;;;10.73;1.90;;;7.30;99.90;;;;;;5024947;28;20210;-61
2023/01/30 08:17:20;;;;;;;10.93;1.73;;;7.30;99.90;;;;;;5028443;28;20641;-59
2023/01/30 08:19:46;;;;;;;10.40;2.40;;;7.30;99.90;;;;;;5024613;28;20209;-62
2023/01/30 08:22:14;;;;;;;14.70;2.50;;;7.30;99.90;;;;;;5025925;28;20286;-60
2023/01/30 08:24:40;;;;;;;10.70;2.03;;;7.40;99.90;;;;;;5032301;28;20693;-60
2023/01/30 08:27:07;;;;;;;12.90;2.60;;;7.40;99.90;;;;;;5027184;28;20672;-61
2023/01/30 08:29:34;;;;;;;11.27;2.77;;;7.70;99.90;;;;;;5023940;28;20538;-62
2023/01/30 08:32:01;;;;;;;10.23;2.50;;;7.60;99.90;;;;;;5018549;28;20294;-62
2023/01/30 08:34:28;;;;;;;13.27;2.87;;;7.50;99.90;;;;;;5016231;28;20224;-63
2023/01/30 08:36:55;;;;;;;12.30;2.17;;;7.50;99.90;;;;;;5020722;28;20236;-62
2023/01/30 08:39:21;;;;;;;7.87;1.90;;;7.60;99.90;;;;;;5019084;28;20671;-61
2023/01/30 08:41:48;;;;;;;9.73;2.23;;;7.80;99.90;;;;;;5025181;28;20208;-61
2023/01/30 08:44:15;;;;;;;13.37;2.33;;;7.90;99.90;;;;;;5020722;28;20902;-61
2023/01/30 08:46:42;;;;;;;9.47;2.40;;;7.90;99.90;;;;;;5020440;28;20268;-62
2023/01/30 08:49:10;;;;;;;10.33;2.40;;;7.80;99.90;;;;;;5019983;28;20294;-62
2023/01/30 08:51:37;;;;;;;8.53;2.37;;;7.80;99.90;;;;;;5021228;28;20220;-61
2023/01/30 08:54:06;;;;;;;9.27;2.17;;;8.10;99.90;;;;;;5022987;28;20210;-61
2023/01/30 08:56:33;;;;;;;13.27;2.10;;;8.20;99.90;;;;;;5012073;28;21101;-61
2023/01/30 08:59:00;;;;;;;13.77;2.43;;;8.20;99.90;;;;;;5017794;28;20297;-60
2023/01/30 09:01:27;;;;;;;12.37;1.77;;;8.30;99.90;;;;;;5021795;28;20570;-59
2023/01/30 09:03:54;;;;;;;10.60;2.60;;;8.30;99.90;;;;;;5029619;28;20312;-59
2023/01/30 09:06:21;;;;;;;13.30;2.73;;;8.30;99.90;;;;;;5023894;28;20208;-59
2023/01/30 09:08:49;;;;;;;8.33;1.87;;;8.30;99.90;;;;;;5020074;28;20204;-59
2023/01/30 09:11:16;;;;;;;12.63;2.33;;;8.40;99.90;;;;;;5023069;28;20530;-60
2023/01/30 09:13:43;;;;;;;10.60;2.70;;;8.60;99.90;;;;;;5026313;28;20211;-62
2023/01/30 09:16:10;;;;;;;8.00;1.70;;;8.60;99.90;;;;;;5022924;28;20223;-60
2023/01/30 09:18:42;;;;;;;15.03;2.90;;;8.60;99.90;;;;;;5020232;28;20283;-63
2023/01/30 09:21:11;;;;;;;11.10;2.30;;;8.70;99.90;;;;;;5027733;28;20203;-59
2023/01/30 09:23:38;;;;;;;7.97;1.73;;;8.90;99.90;;;;;;5023217;28;20631;-59
2023/01/30 09:26:05;;;;;;;8.70;1.63;;;9.20;99.90;;;;;;5027056;28;20301;-60
2023/01/30 09:28:33;;;;;;;13.80;2.30;;;9.20;99.90;;;;;;5022373;28;20937;-60
2023/01/30 09:31:01;;;;;;;7.40;2.37;;;9.40;99.90;;;;;;5020039;28;20565;-59
2023/01/30 09:33:28;;;;;;;11.80;1.97;;;9.20;99.90;;;;;;5013669;28;20703;-60
2023/01/30 09:35:54;;;;;;;11.50;2.00;;;9.00;99.90;;;;;;5023148;28;20694;-60
2023/01/30 09:38:21;;;;;;;17.33;3.23;;;8.70;99.90;;;;;;4996233;28;20719;-60
2023/01/30 09:41:23;;;;;;;10.33;2.27;;;9.00;99.90;;;;;;5021820;28;20206;-60
2023/01/30 09:43:52;;;;;;;10.20;2.33;;;8.80;99.90;;;;;;5022176;28;20217;-59
2023/01/30 09:46:34;;;;;;;9.43;2.20;;;8.70;99.90;;;;;;5022204;28;20686;-60
2023/01/30 09:49:36;;;;;;;9.40;1.80;;;8.90;99.90;;;;;;5022905;28;20726;-60
2023/01/30 09:52:53;;;;;;;10.68;2.30;;;9.10;99.90;;;;;;4981598;28;20564;-61
2023/01/30 09:55:23;;;;;;;5.47;1.90;;;8.70;99.90;;;;;;5009191;28;20540;-61
2023/01/30 09:57:51;;;;;;;6.97;1.80;;;8.70;99.90;;;;;;5023618;28;20230;-63
2023/01/30 10:00:29;;;;;;;9.93;1.73;;;8.70;99.90;;;;;;5020360;28;20714;-63
2023/01/30 10:03:03;;;;;;;11.33;1.80;;;8.70;99.90;;;;;;5027874;28;20265;-61
2023/01/30 10:06:13;;;;;;;7.50;1.73;;;8.60;99.90;;;;;;5026028;28;20198;-61
2023/01/30 10:09:34;;;;;;;5.40;1.47;;;8.60;99.90;;;;;;5017758;28;20695;-61
2023/01/30 10:12:22;;;;;;;6.20;1.60;;;8.50;99.90;;;;;;4971045;28;20594;-61
2023/01/30 10:15:13;;;;;;;10.00;1.87;;;8.40;99.90;;;;;;4960528;28;20810;-61
2023/01/30 10:18:08;;;;;;;6.50;1.73;;;8.40;99.90;;;;;;4975481;28;20854;-62
2023/01/30 10:21:13;;;;;;;9.47;1.60;;;8.40;99.90;;;;;;4958512;28;20305;-61
2023/01/30 10:24:09;;;;;;;8.07;1.70;;;8.30;99.90;;;;;;4974769;28;20204;-61
2023/01/30 10:26:38;;;;;;;6.23;1.70;;;8.30;99.90;;;;;;4974084;28;20318;-61
2023/01/30 10:29:19;;;;;;;6.93;1.70;;;8.40;99.90;;;;;;4973871;28;20206;-61
2023/01/30 10:32:14;;;;;;;12.97;2.30;;;8.30;99.90;;;;;;4975177;28;20231;-63
2023/01/30 10:34:48;;;;;;;6.77;1.40;;;8.50;99.90;;;;;;4973043;28;20287;-62
2023/01/30 10:37:38;;;;;;;7.83;1.83;;;8.50;99.90;;;;;;4970744;28;20242;-61
2023/01/30 10:40:27;;;;;;;14.93;2.30;;;8.50;99.90;;;;;;4958572;28;20209;-62
2023/01/30 10:43:20;;;;;;;12.00;1.80;;;8.50;99.90;;;;;;4971559;28;20305;-63
2023/01/30 10:46:22;;;;;;;5.13;1.53;;;8.40;99.90;;;;;;4989777;28;20200;-62
2023/01/30 10:49:05;;;;;;;6.97;1.97;;;8.40;99.90;;;;;;5016660;28;20239;-62
2023/01/30 10:51:40;;;;;;;15.20;2.57;;;8.40;99.90;;;;;;5023373;28;20273;-62
2023/01/30 10:54:13;;;;;;;9.70;2.00;;;8.30;99.90;;;;;;5028607;28;20213;-61
2023/01/30 10:56:59;;;;;;;10.13;2.10;;;8.30;99.90;;;;;;5025743;28;20207;-62
2023/01/30 10:59:32;;;;;;;7.53;1.97;;;8.30;99.90;;;;;;5025399;28;20205;-61
2023/01/30 11:02:11;;;;;;;13.57;2.50;;;8.30;99.90;;;;;;5020095;28;20573;-63
2023/01/30 11:04:50;;;;;;;10.57;2.27;;;8.40;99.90;;;;;;5014873;28;20268;-62
2023/01/30 11:07:17;;;;;;;14.07;1.67;;;8.40;99.90;;;;;;5028260;28;20620;-62
2023/01/30 11:09:46;;;;;;;9.97;2.30;;;8.40;99.90;;;;;;5021800;28;20220;-62
2023/01/30 11:12:14;;;;;;;7.20;2.00;;;8.70;99.90;;;;;;5029946;28;20819;-61
2023/01/30 11:14:51;;;;;;;10.13;2.60;;;8.80;99.90;;;;;;5022612;28;20235;-61
2023/01/30 11:17:21;;;;;;;10.23;2.40;;;9.00;99.90;;;;;;5018930;28;20208;-60
2023/01/30 11:20:20;;;;;;;10.07;1.80;;;9.00;99.90;;;;;;5020910;28;20194;-66
2023/01/30 11:23:05;;;;;;;10.90;2.47;;;8.90;99.90;;;;;;5019924;28;20207;-65
2023/01/30 11:25:47;;;;;;;12.00;2.20;;;8.70;99.90;;;;;;5025565;28;20671;-65
2023/01/30 11:28:18;;;;;;;6.97;1.77;;;8.80;99.90;;;;;;5021378;28;20216;-64
2023/01/30 11:30:59;;;;;;;9.20;3.37;;;8.70;99.90;;;;;;5024272;28;20221;-61
2023/01/30 11:33:35;;;;;;;7.53;1.87;;;8.70;99.90;;;;;;5020063;28;20200;-60
2023/01/30 11:36:22;;;;;;;15.23;2.60;;;8.70;99.90;;;;;;5034074;28;20598;-62
2023/01/30 11:38:55;;;;;;;9.67;2.43;;;8.70;99.90;;;;;;5027457;28;20233;-60
2023/01/30 11:41:23;;;;;;;10.57;2.00;;;8.60;99.90;;;;;;5025575;28;20279;-61
2023/01/30 11:43:49;;;;;;;9.23;1.93;;;8.60;99.90;;;;;;5024883;28;20210;-60
2023/01/30 11:46:19;;;;;;;9.23;2.30;;;8.50;99.90;;;;;;5028157;28;20746;-61
2023/01/30 11:48:52;;;;;;;11.57;2.83;;;8.60;99.90;;;;;;5021157;28;20311;-63
2023/01/30 11:51:42;;;;;;;15.70;3.30;;;8.60;99.90;;;;;;5031626;28;20228;-66
2023/01/30 11:54:19;;;;;;;9.87;3.20;;;8.70;99.90;;;;;;5019873;28;20202;-63
2023/01/30 11:56:56;;;;;;;9.87;2.20;;;8.70;99.90;;;;;;5024541;28;20206;-63
2023/01/30 11:59:35;;;;;;;11.23;2.10;;;8.60;99.90;;;;;;5025394;28;20337;-63
2023/01/30 12:02:09;;;;;;;7.40;2.23;;;8.60;99.90;;;;;;5017874;28;20332;-63
2023/01/30 12:04:37;;;;;;;14.93;2.37;;;8.60;99.90;;;;;;5031700;28;20196;-64
2023/01/30 12:07:23;;;;;;;9.10;2.10;;;8.60;99.90;;;;;;5025673;28;20217;-62
2023/01/30 12:09:50;;;;;;;10.17;2.67;;;8.60;99.90;;;;;;5027026;28;20219;-64
2023/01/30 12:12:29;;;;;;;10.93;1.93;;;8.60;99.90;;;;;;5029386;28;20222;-64
2023/01/30 12:15:27;;;;;;;10.63;1.83;;;8.90;99.90;;;;;;5029950;28;20207;-64
2023/01/30 12:18:02;;;;;;;12.33;2.43;;;9.00;99.90;;;;;;5006454;28;20267;-63
2023/01/30 12:20:51;;;;;;;7.23;1.90;;;9.50;99.90;;;;;;5023730;28;20228;-62
2023/01/30 12:23:43;;;;;;;6.47;1.90;;;9.80;99.90;;;;;;5029074;28;20308;-64
2023/01/30 12:26:23;;;;;;;8.07;1.93;;;10.20;99.90;;;;;;5030734;28;20201;-64
2023/01/30 12:29:00;;;;;;;7.53;2.20;;;10.30;99.90;;;;;;5022674;28;20719;-64
2023/01/30 12:31:45;;;;;;;12.23;2.60;;;10.10;99.90;;;;;;5022891;28;20222;-63
2023/01/30 12:34:12;;;;;;;10.73;3.20;;;9.90;99.90;;;;;;5022453;28;20705;-64
2023/01/30 12:37:00;;;;;;;12.53;2.20;;;9.80;99.90;;;;;;5031736;28;20861;-63
2023/01/30 12:39:55;;;;;;;10.10;2.53;;;10.00;99.90;;;;;;5020778;28;20270;-65
2023/01/30 12:42:47;;;;;;;8.83;1.97;;;9.70;99.90;;;;;;5027574;28;20234;-62
2023/01/30 12:45:22;;;;;;;12.30;2.70;;;9.50;99.90;;;;;;5020147;28;20587;-63
2023/01/30 12:47:58;;;;;;;13.57;1.83;;;9.40;99.90;;;;;;5024767;28;20202;-64
2023/01/30 12:50:34;;;;;;;13.77;2.83;;;9.30;99.90;;;;;;5028717;28;20309;-64
2023/01/30 12:53:16;;;;;;;10.17;2.70;;;9.40;99.90;;;;;;5019355;28;20208;-63
2023/01/30 12:55:55;;;;;;;12.30;3.00;;;9.70;99.90;;;;;;5022696;28;20202;-63
2023/01/30 12:58:42;;;;;;;9.70;2.10;;;9.70;99.90;;;;;;5024642;28;20466;-64
2023/01/30 13:01:24;;;;;;;9.53;1.90;;;10.10;99.90;;;;;;5028765;28;20227;-64
2023/01/30 13:04:28;;;;;;;8.73;1.70;;;9.70;99.90;;;;;;5028358;28;20214;-64
2023/01/30 13:07:26;;;;;;;14.83;3.20;;;9.50;99.90;;;;;;5028395;28;20243;-63
2023/01/30 13:10:17;;;;;;;16.33;2.20;;;9.50;99.90;;;;;;5028649;28;20216;-65
2023/01/30 13:12:54;;;;;;;14.93;2.20;;;9.60;99.90;;;;;;5026506;28;20631;-66
2023/01/30 13:15:25;;;;;;;11.23;3.40;;;9.30;99.90;;;;;;5022602;28;20217;-63
2023/01/30 13:18:06;;;;;;;15.30;2.63;;;9.40;99.90;;;;;;5024498;28;20255;-64
2023/01/30 13:20:54;;;;;;;8.73;2.03;;;9.30;99.90;;;;;;5025323;28;20228;-63
2023/01/30 13:23:38;;;;;;;14.10;2.97;;;9.30;99.90;;;;;;5021732;28;20198;-63
2023/01/30 13:26:18;;;;;;;10.10;1.97;;;9.20;99.90;;;;;;5021543;28;20544;-63